TimeCDT,TemperatureF,Dew PointF,Humidity,Sea Level PressureIn,VisibilityMPH,Wind Direction,Wind SpeedMPH,Gust SpeedMPH,PrecipitationIn,Events,Conditions,WindDirDegrees,DateUTC
12:53 AM,63.0,62.1,97,29.75,10.0,Calm,Calm,-,N/A,,Clear,0,2013-06-26 05:53:00
1:53 AM,66.0,63.0,90,29.73,10.0,Calm,Calm,-,N/A,,Clear,0,2013-06-26 06:53:00
2:53 AM,64.9,63.0,93,29.72,10.0,Calm,Calm,-,N/A,,Clear,0,2013-06-26 07:53:00
3:53 AM,64.9,64.0,97,29.72,9.0,Calm,Calm,-,N/A,,Clear,0,2013-06-26 08:53:00
4:53 AM,64.9,64.0,97,29.74,9.0,Calm,Calm,-,N/A,,Overcast,0,2013-06-26 09:53:00
5:05 AM,64.4,64.4,100,29.75,8.0,Calm,Calm,-,N/A,,Mostly Cloudy,0,2013-06-26 10:05:00
5:49 AM,68.0,66.2,94,29.73,5.0,Calm,Calm,-,N/A,,Mostly Cloudy,0,2013-06-26 10:49:00
5:53 AM,68.0,66.9,96,29.71,5.0,Calm,Calm,-,N/A,,Mostly Cloudy,0,2013-06-26 10:53:00
6:53 AM,71.1,69.1,93,29.71,4.0,Calm,Calm,-,N/A,,Overcast,0,2013-06-26 11:53:00
7:49 AM,73.4,69.8,88,29.73,7.0,SSE,3.5,-,N/A,,Overcast,150,2013-06-26 12:49:00
7:53 AM,73.0,70.0,90,29.71,7.0,SE,3.5,-,N/A,,Overcast,140,2013-06-26 12:53:00
8:53 AM,78.1,72.0,81,29.69,10.0,SSE,6.9,-,N/A,,Partly Cloudy,160,2013-06-26 13:53:00
9:53 AM,79.0,72.0,79,29.70,10.0,South,4.6,-,N/A,,Mostly Cloudy,180,2013-06-26 14:53:00
10:53 AM,80.1,73.0,79,29.71,10.0,SSE,8.1,-,N/A,,Partly Cloudy,160,2013-06-26 15:53:00
11:16 AM,80.6,73.4,79,29.72,10.0,SSE,9.2,-,N/A,,Mostly Cloudy,160,2013-06-26 16:16:00
11:53 AM,81.0,73.0,77,29.70,10.0,SSE,8.1,17.3,N/A,,Overcast,160,2013-06-26 16:53:00
12:53 PM,82.0,72.0,71,29.70,10.0,South,12.7,-,N/A,,Mostly Cloudy,170,2013-06-26 17:53:00
1:53 PM,78.1,71.1,79,29.70,10.0,SW,5.8,-,0.00,Rain,Light Rain,220,2013-06-26 18:53:00
2:03 PM,78.8,71.6,78,29.72,10.0,West,4.6,-,0.00,Thunderstorm,Mostly Cloudy,260,2013-06-26 19:03:00
2:16 PM,73.4,66.2,78,29.72,10.0,Variable,5.8,19.6,0.00,Rain,Light Rain,0,2013-06-26 19:16:00
2:46 PM,69.8,66.2,88,29.74,10.0,Calm,Calm,-,0.02,,Mostly Cloudy,0,2013-06-26 19:46:00
2:53 PM,70.0,66.9,90,29.73,10.0,Calm,Calm,-,0.02,,Mostly Cloudy,0,2013-06-26 19:53:00
3:06 PM,69.8,68.0,94,29.74,10.0,Calm,Calm,-,N/A,,Mostly Cloudy,0,2013-06-26 20:06:00
3:26 PM,69.8,68.0,94,29.75,10.0,Calm,Calm,-,N/A,,Overcast,0,2013-06-26 20:26:00
3:53 PM,72.0,68.0,87,29.74,10.0,Calm,Calm,-,N/A,,Mostly Cloudy,0,2013-06-26 20:53:00
4:00 PM,71.6,68.0,88,29.75,10.0,Calm,Calm,-,N/A,,Scattered Clouds,0,2013-06-26 21:00:00
4:53 PM,75.9,68.0,76,29.72,10.0,Calm,Calm,-,N/A,,Clear,0,2013-06-26 21:53:00
5:53 PM,73.9,69.1,85,29.72,10.0,Calm,Calm,-,N/A,,Clear,0,2013-06-26 22:53:00
6:53 PM,78.1,69.1,74,29.71,10.0,Variable,3.5,-,N/A,,Clear,0,2013-06-26 23:53:00
7:53 PM,77.0,69.1,76,29.73,10.0,Calm,Calm,-,N/A,,Partly Cloudy,0,2013-06-27 00:53:00
8:53 PM,72.0,70.0,93,29.74,10.0,Calm,Calm,-,N/A,,Clear,0,2013-06-27 01:53:00
9:53 PM,68.0,66.9,96,29.76,9.0,Calm,Calm,-,N/A,,Clear,0,2013-06-27 02:53:00
10:03 PM,66.2,66.2,100,29.77,2.5,Calm,Calm,-,N/A,,Partly Cloudy,0,2013-06-27 03:03:00
10:07 PM,66.2,66.2,100,29.77,1.0,Calm,Calm,-,N/A,,Mist,0,2013-06-27 03:07:00
10:18 PM,66.2,66.2,100,29.77,1.0,Calm,Calm,-,N/A,,Clear,0,2013-06-27 03:18:00
10:27 PM,66.2,66.2,100,29.78,2.5,Calm,Calm,-,N/A,,Clear,0,2013-06-27 03:27:00
10:34 PM,66.2,66.2,100,29.79,8.0,Calm,Calm,-,N/A,,Clear,0,2013-06-27 03:34:00
10:47 PM,64.4,62.6,94,29.79,1.2,Calm,Calm,-,N/A,,Partly Cloudy,0,2013-06-27 03:47:00
10:53 PM,64.0,64.0,100,29.78,0.5,Calm,Calm,-,N/A,Fog,Fog,0,2013-06-27 03:53:00
10:59 PM,64.4,64.4,100,29.80,1.2,Calm,Calm,-,N/A,,Mostly Cloudy,0,2013-06-27 03:59:00
11:09 PM,64.4,64.4,100,29.80,0.5,Calm,Calm,-,N/A,Fog,Fog,0,2013-06-27 04:09:00
11:51 PM,62.6,62.6,100,29.80,0.8,Calm,Calm,-,N/A,,Scattered Clouds,0,2013-06-27 04:51:00
11:53 PM,62.1,62.1,100,29.79,1.0,Calm,Calm,-,N/A,,Scattered Clouds,0,2013-06-27 04:53:00
11:59 PM,62.6,62.6,100,29.80,2.0,Calm,Calm,-,N/A,,Partly Cloudy,0,2013-06-27 04:59:00